Accueil
METAR-TAF:

METAR-TAF

Aéroports :

Paganella, Italie

latitude: 46-09N, longitude: 011-02E, altitude: 2125 m

Observation

Le bulletin a été fait il y a 1 heure et 17 minutes, à 20:55 UTC
Vent 7 kt de sud/sud-ouest
Température 13°C
Humidité 77%
Pression 1028 hPa
Visibilité 10 km ou plus
Nuages épars à une hauteur de 1000 ft
Nuages épars à une hauteur de 2000 ft

METAR: LIVP 212055Z 20007KT 9999 SCT010 SCT020 13/09 Q1028 RMK BKN MON W CIME INC VAL NIL VIS MIN 9999

Heure: 00:12 (22:12 UTC)


TAF: absent

Observations et prévisions météorologiques de plus de 4000 aéroports (messages METAR et TAF).

Les stations disponibles sont représentées par des disques jaunes et rouges sur la carte.

Passer la souris dessus pour voir le nom de la station.

Cliquer dessus pour voir les observations et prévisions météorologiques.

Pour changer de carte: cliquez sur les boutons verts avec une croix noire pour zoomer, sur le bouton vert avec un tiret pour effectuer un zoom arrière, ou sur les flèches vertes pour les cartes adjacentes.


METAR-TAF: